createdAt,value
2023-12-02T00:00:51.771Z,10.20
2023-12-02T00:03:19.380Z,10.13
2023-12-02T00:05:46.581Z,9.53
2023-12-02T00:08:13.739Z,10.33
2023-12-02T00:10:40.976Z,9.70
2023-12-02T00:13:07.825Z,10.77
2023-12-02T00:15:34.913Z,10.13
2023-12-02T00:18:01.899Z,9.50
2023-12-02T00:20:28.819Z,10.30
2023-12-02T00:22:55.822Z,7.90
2023-12-02T00:25:22.850Z,9.73
2023-12-02T00:27:50.609Z,9.97
2023-12-02T00:30:17.717Z,9.13
2023-12-02T00:32:44.712Z,8.97
2023-12-02T00:35:11.592Z,9.07
2023-12-02T00:37:38.482Z,9.27
2023-12-02T00:40:06.800Z,8.77
2023-12-02T00:42:33.774Z,8.70
2023-12-02T00:45:00.894Z,8.63
2023-12-02T00:47:28.494Z,8.93
2023-12-02T00:49:56.770Z,7.50
2023-12-02T00:52:24.320Z,8.07
2023-12-02T00:54:51.427Z,10.30
2023-12-02T00:57:18.290Z,9.50
2023-12-02T00:59:45.177Z,9.57
2023-12-02T01:02:12.366Z,9.13
2023-12-02T01:04:39.349Z,7.87
2023-12-02T01:07:37.406Z,8.70
2023-12-02T01:10:13.578Z,6.90
2023-12-02T01:12:47.031Z,8.20
2023-12-02T01:15:13.829Z,9.10
2023-12-02T01:17:40.651Z,9.20
2023-12-02T01:20:08.093Z,10.00
2023-12-02T01:22:34.849Z,8.13
2023-12-02T01:25:01.805Z,8.40
2023-12-02T01:27:28.843Z,8.57
2023-12-02T01:29:56.193Z,9.43
2023-12-02T01:32:22.951Z,10.63
2023-12-02T01:34:49.669Z,9.70
2023-12-02T01:37:16.383Z,9.73
2023-12-02T01:39:43.722Z,10.17
2023-12-02T01:42:10.487Z,10.40
2023-12-02T01:44:37.317Z,10.17
2023-12-02T01:47:05.173Z,9.33
2023-12-02T01:49:33.486Z,11.60
2023-12-02T01:52:00.726Z,10.60
2023-12-02T01:54:27.500Z,10.13
2023-12-02T01:56:54.753Z,10.00
2023-12-02T01:59:21.704Z,9.67
2023-12-02T02:01:48.510Z,9.93
2023-12-02T02:04:16.314Z,9.30
2023-12-02T02:06:45.305Z,9.90
2023-12-02T02:09:12.063Z,10.60
2023-12-02T02:11:38.784Z,11.23
2023-12-02T02:14:05.591Z,10.30
2023-12-02T02:16:32.365Z,9.47
2023-12-02T02:19:01.924Z,10.67
2023-12-02T02:21:31.465Z,12.27
2023-12-02T02:23:58.692Z,10.93
2023-12-02T02:26:25.487Z,9.90
2023-12-02T02:28:52.490Z,9.90
2023-12-02T02:31:19.271Z,10.37
2023-12-02T02:33:46.028Z,10.73
2023-12-02T02:36:12.840Z,9.17
2023-12-02T02:38:40.166Z,10.07
2023-12-02T02:41:07.162Z,9.83
2023-12-02T02:43:34.130Z,9.73
2023-12-02T02:46:00.956Z,9.70
2023-12-02T02:48:27.872Z,11.40
2023-12-02T02:50:54.670Z,10.23
2023-12-02T02:53:21.426Z,9.20
2023-12-02T02:55:48.652Z,9.70
2023-12-02T02:58:15.462Z,10.33
2023-12-02T03:00:42.265Z,10.07
2023-12-02T03:03:09.916Z,11.37
2023-12-02T03:05:37.300Z,9.67
2023-12-02T03:08:04.134Z,9.73
2023-12-02T03:10:31.254Z,10.63
2023-12-02T03:12:58.039Z,10.20
2023-12-02T03:15:27.522Z,9.33
2023-12-02T03:17:54.769Z,8.97
2023-12-02T03:20:21.711Z,9.93
2023-12-02T03:22:48.467Z,10.70
2023-12-02T03:25:16.120Z,11.93
2023-12-02T03:27:42.894Z,11.30
2023-12-02T03:30:10.178Z,11.40
2023-12-02T03:32:41.374Z,9.57
2023-12-02T03:35:09.264Z,9.30
2023-12-02T03:37:39.249Z,12.30
2023-12-02T03:40:07.324Z,10.40
2023-12-02T03:42:34.235Z,11.03
2023-12-02T03:45:04.119Z,12.07
2023-12-02T03:47:31.083Z,11.57
2023-12-02T03:49:58.019Z,11.40
2023-12-02T03:52:24.869Z,12.67
2023-12-02T03:54:51.679Z,14.80
2023-12-02T03:57:18.402Z,13.50
2023-12-02T03:59:45.152Z,12.23
2023-12-02T04:02:14.704Z,13.10
2023-12-02T04:04:42.326Z,14.30
2023-12-02T04:07:09.185Z,13.20
2023-12-02T04:09:36.022Z,13.13
2023-12-02T04:12:03.121Z,15.27
2023-12-02T04:14:29.852Z,14.73
2023-12-02T04:16:56.554Z,13.43
2023-12-02T04:19:23.719Z,14.77
2023-12-02T04:21:50.692Z,14.03
2023-12-02T04:24:17.528Z,13.83
2023-12-02T04:26:44.362Z,14.20
2023-12-02T04:29:11.086Z,14.13
2023-12-02T04:31:38.979Z,13.67
2023-12-02T04:34:05.986Z,14.83
2023-12-02T04:36:32.955Z,14.80
2023-12-02T04:38:59.808Z,14.23
2023-12-02T04:41:29.385Z,13.83
2023-12-02T04:43:56.295Z,13.67
2023-12-02T04:46:23.737Z,12.17
2023-12-02T04:48:50.744Z,12.40
2023-12-02T04:51:18.108Z,14.40
2023-12-02T04:53:46.070Z,14.00
2023-12-02T04:56:13.054Z,13.90
2023-12-02T04:58:40.487Z,12.20
2023-12-02T05:01:07.735Z,13.77
2023-12-02T05:03:35.357Z,13.87
2023-12-02T05:06:02.815Z,15.60
2023-12-02T05:08:29.735Z,14.53
2023-12-02T05:10:56.776Z,14.13
2023-12-02T05:13:23.758Z,14.30
2023-12-02T05:15:50.736Z,14.73
2023-12-02T05:18:18.237Z,12.60
2023-12-02T05:20:45.215Z,14.00
2023-12-02T05:23:12.118Z,13.30
2023-12-02T05:25:39.006Z,14.63
2023-12-02T05:28:06.257Z,15.87
2023-12-02T05:30:34.923Z,13.77
2023-12-02T05:33:03.868Z,14.70
2023-12-02T05:35:32.756Z,13.73
2023-12-02T05:38:00.180Z,13.50
2023-12-02T05:40:27.160Z,14.80
2023-12-02T05:42:54.129Z,13.53
2023-12-02T05:45:20.996Z,14.27
2023-12-02T05:47:48.150Z,11.80
2023-12-02T05:50:15.523Z,13.67
2023-12-02T05:52:42.376Z,12.33
2023-12-02T05:55:11.059Z,13.23
2023-12-02T05:57:38.508Z,13.03
2023-12-02T06:00:06.274Z,13.07
2023-12-02T06:02:34.129Z,13.87
2023-12-02T06:05:01.223Z,14.00
2023-12-02T06:07:28.170Z,13.47
2023-12-02T06:09:55.305Z,14.00
2023-12-02T06:12:22.461Z,12.90
2023-12-02T06:14:49.488Z,13.60
2023-12-02T06:17:16.628Z,12.40
2023-12-02T06:19:43.465Z,12.37
2023-12-02T06:22:10.343Z,14.43
2023-12-02T06:24:38.053Z,12.83
2023-12-02T06:27:05.521Z,11.93
2023-12-02T06:29:32.547Z,13.07
2023-12-02T06:31:59.929Z,12.00
2023-12-02T06:34:26.850Z,12.13
2023-12-02T06:36:53.716Z,12.63
2023-12-02T06:39:20.924Z,12.37
2023-12-02T06:41:47.863Z,12.00
2023-12-02T06:44:14.952Z,13.20
2023-12-02T06:46:41.869Z,11.40
2023-12-02T06:49:08.855Z,13.53
2023-12-02T06:51:35.736Z,10.57
2023-12-02T06:54:02.703Z,13.43
2023-12-02T06:56:29.796Z,12.20
2023-12-02T06:58:56.703Z,14.43
2023-12-02T07:01:28.994Z,13.30
2023-12-02T07:03:57.421Z,13.40
2023-12-02T07:06:25.410Z,13.97
2023-12-02T07:08:53.139Z,13.57
2023-12-02T07:11:25.737Z,13.23
2023-12-02T07:13:53.012Z,12.47
2023-12-02T07:16:21.677Z,14.20
2023-12-02T07:18:51.953Z,12.07
2023-12-02T07:21:19.452Z,12.17
2023-12-02T07:23:48.393Z,13.20
2023-12-02T07:26:16.033Z,13.13
2023-12-02T07:28:43.504Z,12.40
2023-12-02T07:31:16.707Z,14.80
2023-12-02T07:33:44.687Z,13.30
2023-12-02T07:36:12.445Z,12.67
2023-12-02T07:38:42.714Z,12.80
2023-12-02T07:41:10.901Z,12.80
2023-12-02T07:43:38.418Z,14.67
2023-12-02T07:46:05.725Z,14.37
2023-12-02T07:48:32.925Z,12.63
2023-12-02T07:50:59.840Z,12.83
2023-12-02T07:53:27.446Z,13.17
2023-12-02T07:56:07.707Z,13.07
2023-12-02T07:58:42.978Z,15.17
2023-12-02T08:01:10.475Z,12.83
2023-12-02T08:03:37.739Z,13.70
2023-12-02T08:06:05.963Z,13.23
2023-12-02T08:08:33.237Z,13.80
2023-12-02T08:11:01.861Z,13.30
2023-12-02T08:13:30.253Z,11.43
2023-12-02T08:15:57.237Z,14.70
2023-12-02T08:18:24.413Z,13.43
2023-12-02T08:20:51.620Z,13.10
2023-12-02T08:23:19.367Z,14.10
2023-12-02T08:25:46.791Z,15.10
2023-12-02T08:28:13.696Z,15.23
2023-12-02T08:30:40.861Z,14.80
2023-12-02T08:33:07.714Z,14.43
2023-12-02T08:35:35.798Z,14.53
2023-12-02T08:38:02.622Z,15.27
2023-12-02T08:40:29.910Z,15.90
2023-12-02T08:42:56.849Z,15.10
2023-12-02T08:45:23.634Z,16.60
2023-12-02T08:47:50.606Z,17.40
2023-12-02T08:50:17.753Z,15.20
2023-12-02T08:52:47.356Z,15.40
2023-12-02T08:55:18.851Z,15.90
2023-12-02T08:57:46.024Z,16.47
2023-12-02T09:00:13.699Z,18.53
2023-12-02T09:02:40.571Z,17.77
2023-12-02T09:05:07.916Z,16.90
2023-12-02T09:07:35.817Z,16.83
2023-12-02T09:10:15.153Z,16.67
2023-12-02T09:12:44.342Z,16.37
2023-12-02T09:15:18.096Z,16.97
2023-12-02T09:18:11.374Z,16.00
2023-12-02T09:20:53.055Z,16.00
2023-12-02T09:23:26.671Z,16.43
2023-12-02T09:25:56.437Z,16.90
2023-12-02T09:28:28.973Z,15.40
2023-12-02T09:31:10.706Z,15.70
2023-12-02T09:33:40.797Z,17.60
2023-12-02T09:36:27.808Z,15.70
2023-12-02T09:38:55.446Z,17.50
2023-12-02T09:41:32.833Z,15.53
2023-12-02T09:44:19.045Z,15.37
2023-12-02T09:47:11.978Z,15.13
2023-12-02T09:49:44.950Z,15.23
2023-12-02T09:52:26.481Z,16.30
2023-12-02T09:55:09.187Z,15.47
2023-12-02T09:57:58.428Z,15.67
2023-12-02T10:00:28.289Z,16.60
2023-12-02T10:03:26.129Z,15.10
2023-12-02T10:06:28.307Z,16.80
2023-12-02T10:09:01.376Z,17.00
2023-12-02T10:11:31.927Z,22.80
2023-12-02T10:14:13.852Z,14.63
2023-12-02T10:16:48.520Z,14.50
2023-12-02T10:19:47.554Z,17.50
2023-12-02T10:22:25.297Z,15.80
2023-12-02T10:25:00.577Z,15.97
2023-12-02T10:27:31.246Z,14.10
2023-12-02T10:30:13.806Z,14.63
2023-12-02T10:32:57.017Z,15.40
2023-12-02T10:35:31.682Z,14.53
2023-12-02T10:38:27.844Z,14.50
2023-12-02T10:41:17.865Z,14.70
2023-12-02T10:43:46.281Z,14.93
2023-12-02T10:46:14.299Z,14.90
2023-12-02T10:48:41.727Z,16.40
2023-12-02T10:51:17.326Z,15.80
2023-12-02T10:53:47.310Z,14.97
2023-12-02T10:56:23.110Z,15.47
2023-12-02T10:58:52.256Z,16.03
2023-12-02T11:01:50.340Z,14.50
2023-12-02T11:04:28.662Z,13.57
2023-12-02T11:07:04.440Z,15.97
2023-12-02T11:09:55.136Z,13.80
2023-12-02T11:12:50.193Z,13.50
2023-12-02T11:15:30.858Z,14.47
2023-12-02T11:18:26.286Z,16.23
2023-12-02T11:32:49.898Z,13.63
2023-12-02T11:35:52.068Z,16.70
2023-12-02T11:38:42.664Z,14.53
2023-12-02T11:41:37.478Z,14.97
2023-12-02T11:48:52.496Z,15.00
2023-12-02T11:51:59.095Z,16.53
2023-12-02T11:54:53.492Z,16.00
2023-12-02T11:58:07.516Z,16.20
2023-12-02T12:01:13.808Z,15.13
2023-12-02T12:11:27.321Z,15.37
2023-12-02T12:38:57.625Z,14.53
2023-12-02T12:42:26.310Z,15.77
2023-12-02T12:44:54.372Z,14.73
2023-12-02T12:47:26.137Z,15.10
2023-12-02T12:49:57.999Z,13.57
2023-12-02T12:52:40.083Z,12.70
2023-12-02T12:55:24.018Z,12.90
2023-12-02T12:58:16.106Z,13.87
2023-12-02T13:01:25.540Z,14.70
2023-12-02T13:04:15.333Z,14.87
2023-12-02T13:06:49.271Z,13.87
2023-12-02T13:09:21.784Z,13.97
2023-12-02T13:12:15.102Z,13.77
2023-12-02T13:14:51.455Z,15.13
2023-12-02T13:17:19.749Z,16.70
2023-12-02T13:19:52.867Z,13.53
2023-12-02T13:22:28.791Z,14.70
2023-12-02T13:25:18.023Z,13.87
2023-12-02T13:28:11.163Z,14.10
2023-12-02T13:43:05.748Z,13.43
2023-12-02T13:45:36.322Z,13.47
2023-12-02T13:48:10.470Z,13.70
2023-12-02T13:50:51.049Z,13.27
2023-12-02T13:53:42.676Z,13.20
2023-12-02T13:56:12.543Z,13.50
2023-12-02T13:58:48.204Z,15.50
2023-12-02T14:01:33.707Z,12.83
2023-12-02T14:04:31.964Z,14.67
2023-12-02T14:07:18.203Z,13.80
2023-12-02T14:09:46.553Z,13.47
2023-12-02T14:12:47.199Z,12.80
2023-12-02T14:15:48.665Z,14.23
2023-12-02T14:18:34.443Z,13.67
2023-12-02T14:21:04.517Z,14.30
2023-12-02T14:24:03.093Z,14.90
2023-12-02T14:26:52.497Z,14.00
2023-12-02T14:30:01.533Z,16.23
2023-12-02T14:33:12.458Z,15.87
2023-12-02T14:36:17.612Z,16.60
2023-12-02T14:39:06.095Z,15.83
2023-12-02T14:41:50.208Z,15.60
2023-12-02T14:44:31.968Z,13.73
2023-12-02T14:47:06.328Z,15.10
2023-12-02T14:49:43.503Z,15.07
2023-12-02T14:56:41.803Z,17.03
2023-12-02T14:59:11.119Z,15.77
2023-12-02T15:01:42.453Z,17.47
2023-12-02T15:04:10.537Z,17.40
2023-12-02T15:06:43.163Z,17.03
2023-12-02T15:09:27.002Z,16.10
2023-12-02T15:37:56.390Z,15.00
2023-12-02T15:40:24.189Z,15.03
2023-12-02T15:42:53.891Z,16.47
2023-12-02T15:45:23.950Z,16.70
2023-12-02T15:47:51.997Z,16.37
2023-12-02T15:50:20.258Z,16.73
2023-12-02T15:52:51.184Z,17.43
2023-12-02T15:55:23.563Z,18.73
2023-12-02T15:57:54.630Z,17.70
2023-12-02T16:00:25.972Z,14.95
2023-12-02T16:02:53.196Z,18.87
2023-12-02T16:05:21.295Z,18.93
2023-12-02T16:07:50.823Z,19.77
2023-12-02T16:10:18.371Z,17.83
2023-12-02T16:12:46.023Z,16.60
2023-12-02T16:15:13.495Z,16.33
2023-12-02T16:17:41.217Z,16.77
2023-12-02T16:20:09.663Z,16.50
2023-12-02T16:22:37.233Z,18.00
2023-12-02T16:25:07.155Z,15.13
2023-12-02T16:27:34.586Z,15.87
2023-12-02T16:30:02.009Z,17.50
2023-12-02T16:32:30.450Z,17.80
2023-12-02T16:34:58.487Z,15.93
2023-12-02T16:37:26.112Z,17.27
2023-12-02T16:39:53.348Z,17.10
2023-12-02T16:42:20.624Z,17.73
2023-12-02T16:44:48.377Z,18.40
2023-12-02T16:47:39.075Z,16.70
2023-12-02T16:50:20.365Z,20.40
2023-12-02T16:53:03.021Z,18.67
2023-12-02T16:55:38.036Z,24.87
2023-12-02T16:58:11.472Z,24.20
2023-12-02T17:00:41.137Z,30.07
2023-12-02T17:03:08.974Z,27.77
2023-12-02T17:05:37.907Z,25.47
2023-12-02T17:08:07.924Z,21.73
2023-12-02T17:10:44.283Z,24.90
2023-12-02T17:13:28.155Z,20.90
2023-12-02T17:15:56.380Z,20.93
2023-12-02T17:18:42.937Z,21.23
2023-12-02T17:21:22.911Z,20.40
2023-12-02T17:23:58.710Z,19.80
2023-12-02T17:26:29.107Z,21.43
2023-12-02T17:28:57.531Z,22.43
2023-12-02T17:31:25.576Z,21.77
2023-12-02T17:34:02.480Z,20.40
2023-12-02T17:36:29.863Z,20.93
2023-12-02T17:38:57.643Z,19.93
2023-12-02T17:41:24.972Z,20.47
2023-12-02T17:43:55.029Z,19.30
2023-12-02T17:46:25.949Z,19.43
2023-12-02T17:48:55.244Z,18.43
2023-12-02T17:51:23.321Z,22.60
2023-12-02T17:53:57.807Z,19.83
2023-12-02T18:14:46.712Z,16.90
2023-12-02T18:17:15.687Z,19.00
2023-12-02T18:19:43.677Z,19.30
2023-12-02T18:22:22.131Z,16.20
2023-12-02T18:24:52.407Z,18.20
2023-12-02T18:27:22.909Z,18.77
2023-12-02T18:29:53.340Z,17.90
2023-12-02T18:32:30.858Z,18.60
2023-12-02T18:35:00.013Z,17.50
2023-12-02T18:37:27.803Z,18.30
2023-12-02T18:39:55.558Z,17.50
2023-12-02T18:42:23.129Z,18.30
2023-12-02T18:44:50.678Z,17.80
2023-12-02T18:47:18.151Z,17.37
2023-12-02T18:49:45.914Z,17.97
2023-12-02T18:52:13.193Z,18.43
2023-12-02T18:54:40.567Z,19.03
2023-12-02T18:57:08.121Z,18.67
2023-12-02T18:59:36.749Z,18.63
2023-12-02T19:02:05.043Z,17.03
2023-12-02T19:04:32.335Z,18.73
2023-12-02T19:06:59.721Z,19.00
2023-12-02T19:09:27.445Z,21.37
2023-12-02T19:12:10.819Z,19.83
2023-12-02T19:14:39.298Z,18.93
2023-12-02T19:17:12.387Z,17.27
2023-12-02T19:19:40.601Z,17.80
2023-12-02T19:22:11.283Z,18.77
2023-12-02T19:24:38.844Z,20.10
2023-12-02T19:27:07.685Z,18.93
2023-12-02T19:29:35.887Z,19.17
2023-12-02T19:32:03.624Z,20.80
2023-12-02T19:34:31.060Z,18.53
2023-12-02T19:36:58.833Z,20.50
2023-12-02T19:39:26.083Z,17.57
2023-12-02T19:41:53.289Z,18.80
2023-12-02T19:44:20.880Z,19.00
2023-12-02T19:46:49.303Z,21.53
2023-12-02T19:49:16.471Z,21.03
2023-12-02T19:51:44.068Z,20.07
2023-12-02T19:54:11.698Z,18.40
2023-12-02T19:56:39.045Z,20.00
2023-12-02T19:59:06.614Z,20.50
2023-12-02T20:01:34.200Z,20.67
2023-12-02T20:04:02.049Z,20.33
2023-12-02T20:06:29.974Z,20.20
2023-12-02T20:08:57.316Z,22.23
2023-12-02T20:11:43.698Z,20.47
2023-12-02T20:14:11.941Z,21.23
2023-12-02T20:16:39.145Z,20.47
2023-12-02T20:19:06.896Z,21.00
2023-12-02T20:21:34.476Z,22.23
2023-12-02T20:24:05.057Z,19.47
2023-12-02T20:26:33.273Z,22.13
2023-12-02T20:29:01.625Z,20.40
2023-12-02T20:31:29.736Z,21.23
2023-12-02T20:33:57.611Z,22.40
2023-12-02T20:36:24.860Z,20.77
2023-12-02T20:38:52.194Z,22.03
2023-12-02T20:41:19.324Z,22.03
2023-12-02T20:43:47.031Z,22.70
2023-12-02T20:46:14.460Z,21.87
2023-12-02T20:48:43.281Z,21.57
2023-12-02T20:51:11.470Z,21.83
2023-12-02T20:53:39.131Z,20.30
2023-12-02T20:56:06.983Z,19.27
2023-12-02T20:58:34.238Z,21.30
2023-12-02T21:01:01.533Z,19.10
2023-12-02T21:03:29.068Z,21.37
2023-12-02T21:05:57.171Z,22.17
2023-12-02T21:08:25.851Z,22.47
2023-12-02T21:10:56.754Z,24.53
2023-12-02T21:13:23.937Z,22.47
2023-12-02T21:15:51.860Z,22.30
2023-12-02T21:18:19.335Z,22.37
2023-12-02T21:20:46.613Z,20.70
2023-12-02T21:23:14.773Z,19.83
2023-12-02T21:25:43.349Z,21.90
2023-12-02T21:28:11.144Z,21.10
2023-12-02T21:30:42.414Z,23.40
2023-12-02T21:33:15.951Z,21.43
2023-12-02T21:35:49.476Z,20.30
2023-12-02T21:38:39.770Z,18.93
2023-12-02T21:41:09.040Z,21.23
2023-12-02T21:43:36.399Z,20.47
2023-12-02T21:46:05.647Z,20.87
2023-12-02T21:48:45.052Z,19.87
2023-12-02T21:51:15.585Z,20.07
2023-12-02T21:53:43.208Z,18.17
2023-12-02T21:56:10.878Z,19.00
2023-12-02T21:58:38.238Z,19.90
2023-12-02T22:01:07.113Z,18.80
2023-12-02T22:03:39.233Z,18.03
2023-12-02T22:06:29.721Z,21.30
2023-12-02T22:08:58.952Z,20.90
2023-12-02T22:11:28.860Z,22.63
2023-12-02T22:13:56.088Z,20.10
2023-12-02T22:16:23.546Z,19.93
2023-12-02T22:18:50.797Z,19.87
2023-12-02T22:21:18.281Z,18.73
2023-12-02T22:23:45.547Z,22.53
2023-12-02T22:26:13.170Z,21.67
2023-12-02T22:28:44.541Z,24.37
2023-12-02T22:31:14.445Z,18.10
2023-12-02T22:33:42.693Z,21.40
2023-12-02T22:36:11.081Z,18.27
2023-12-02T22:38:39.234Z,20.63
2023-12-02T22:41:09.101Z,22.30
2023-12-02T22:43:48.352Z,19.63
2023-12-02T22:46:20.438Z,21.10
2023-12-02T22:48:49.973Z,19.60
2023-12-02T22:51:19.226Z,18.13
2023-12-02T22:53:46.830Z,20.80
2023-12-02T22:56:14.119Z,19.80
2023-12-02T22:58:44.521Z,20.40
2023-12-02T23:01:20.127Z,19.53
2023-12-02T23:03:47.594Z,19.30
2023-12-02T23:06:15.803Z,21.57
2023-12-02T23:08:43.108Z,20.00
2023-12-02T23:11:25.386Z,19.63
2023-12-02T23:13:52.986Z,20.70
2023-12-02T23:16:37.651Z,19.43
2023-12-02T23:19:05.786Z,21.07
2023-12-02T23:21:33.170Z,18.07
2023-12-02T23:24:02.631Z,19.63
2023-12-02T23:26:30.156Z,18.97
2023-12-02T23:28:57.335Z,18.30
2023-12-02T23:31:24.703Z,18.93
2023-12-02T23:33:52.147Z,19.80
2023-12-02T23:36:21.151Z,19.93
2023-12-02T23:38:50.915Z,18.70
2023-12-02T23:41:18.255Z,20.00
2023-12-02T23:43:45.517Z,22.53
2023-12-02T23:46:12.950Z,20.60
2023-12-02T23:48:40.736Z,21.67
2023-12-02T23:51:09.182Z,18.67
2023-12-02T23:53:36.512Z,20.20
2023-12-02T23:56:04.254Z,21.60
2023-12-02T23:58:36.260Z,20.37
